createdAt,value
2018-11-20T00:00:07.292Z,0.00
2018-11-20T00:02:00.607Z,0.00
2018-11-20T00:03:00.553Z,0.00
2018-11-20T00:04:53.349Z,0.00
2018-11-20T00:05:53.292Z,0.00
2018-11-20T00:07:46.105Z,0.00
2018-11-20T00:08:46.056Z,0.00
2018-11-20T00:10:38.841Z,0.00
2018-11-20T00:11:38.819Z,0.00
2018-11-20T00:13:31.625Z,0.00
2018-11-20T00:14:31.561Z,0.00
2018-11-20T00:16:24.352Z,0.00
2018-11-20T00:17:24.312Z,0.00
2018-11-20T00:19:17.121Z,0.00
2018-11-20T00:20:17.072Z,0.00
2018-11-20T00:22:09.862Z,0.00
2018-11-20T00:23:09.822Z,0.00
2018-11-20T00:25:02.638Z,0.00
2018-11-20T00:26:02.578Z,0.00
2018-11-20T00:27:55.382Z,0.00
2018-11-20T00:28:55.328Z,0.00
2018-11-20T00:30:48.149Z,0.00
2018-11-20T00:31:48.092Z,0.00
2018-11-20T00:33:40.897Z,0.00
2018-11-20T00:34:40.846Z,0.00
2018-11-20T00:36:33.666Z,0.00
2018-11-20T00:37:33.602Z,0.00
2018-11-20T00:39:26.417Z,0.00
2018-11-20T00:40:26.362Z,0.00
2018-11-20T00:42:19.654Z,0.00
2018-11-20T00:43:19.603Z,0.00
2018-11-20T00:45:12.426Z,0.00
2018-11-20T00:46:12.363Z,0.00
2018-11-20T00:48:05.153Z,0.00
2018-11-20T00:49:05.111Z,0.00
2018-11-20T00:50:57.967Z,0.00
2018-11-20T00:51:57.889Z,0.00
2018-11-20T00:53:50.679Z,0.00
2018-11-20T00:54:50.644Z,0.00
2018-11-20T00:56:43.455Z,0.00
2018-11-20T00:57:43.394Z,0.00
2018-11-20T00:59:36.684Z,0.00
2018-11-20T01:00:36.638Z,0.00
2018-11-20T01:02:29.967Z,0.00
2018-11-20T01:03:29.904Z,0.00
2018-11-20T01:05:22.739Z,0.00
2018-11-20T01:06:22.664Z,0.00
2018-11-20T01:08:15.935Z,0.00
2018-11-20T01:09:15.898Z,0.00
2018-11-20T01:11:08.715Z,0.00
2018-11-20T01:12:08.648Z,0.00
2018-11-20T01:14:01.933Z,0.00
2018-11-20T01:15:01.899Z,0.00
2018-11-20T01:16:55.224Z,0.00
2018-11-20T01:17:55.159Z,0.00
2018-11-20T01:19:47.960Z,0.00
2018-11-20T01:20:47.907Z,0.00
2018-11-20T01:22:40.729Z,0.00
2018-11-20T01:23:40.664Z,0.00
2018-11-20T01:25:33.958Z,0.00
2018-11-20T01:26:33.914Z,0.00
2018-11-20T01:28:26.735Z,0.00
2018-11-20T01:29:26.700Z,0.00
2018-11-20T01:31:19.465Z,0.00
2018-11-20T01:32:19.430Z,0.00
2018-11-20T01:34:12.256Z,0.00
2018-11-20T01:35:12.186Z,0.00
2018-11-20T01:37:04.994Z,0.00
2018-11-20T01:38:04.929Z,0.00
2018-11-20T01:39:57.719Z,0.00
2018-11-20T01:40:57.691Z,0.00
2018-11-20T01:42:50.506Z,0.00
2018-11-20T01:43:50.444Z,0.00
2018-11-20T01:45:43.235Z,0.00
2018-11-20T01:46:43.181Z,0.00
2018-11-20T01:48:35.986Z,0.00
2018-11-20T01:49:35.932Z,0.00
2018-11-20T01:51:28.853Z,0.00
2018-11-20T01:52:28.694Z,0.00
2018-11-20T01:54:21.507Z,0.00
2018-11-20T01:55:21.450Z,0.00
2018-11-20T01:57:14.745Z,0.00
2018-11-20T01:58:14.696Z,0.00
2018-11-20T02:00:07.522Z,0.00
2018-11-20T02:01:07.455Z,0.00
2018-11-20T02:03:00.247Z,0.00
2018-11-20T02:04:00.246Z,0.00
2018-11-20T02:05:53.515Z,0.00
2018-11-20T02:06:53.454Z,0.00
2018-11-20T02:08:46.252Z,0.00
2018-11-20T02:09:46.216Z,0.00
2018-11-20T02:11:39.032Z,0.00
2018-11-20T02:12:38.962Z,0.00
2018-11-20T02:14:31.760Z,0.00
2018-11-20T02:15:31.730Z,0.00
2018-11-20T02:17:24.526Z,0.00
2018-11-20T02:18:24.472Z,0.00
2018-11-20T02:20:17.267Z,0.00
2018-11-20T02:21:17.237Z,0.00
2018-11-20T02:23:10.043Z,0.00
2018-11-20T02:24:09.978Z,0.00
2018-11-20T02:26:02.798Z,0.00
2018-11-20T02:27:02.733Z,0.00
2018-11-20T02:28:55.522Z,0.00
2018-11-20T02:29:55.482Z,0.00
2018-11-20T02:31:48.297Z,0.00
2018-11-20T02:32:48.227Z,0.00
2018-11-20T02:34:41.027Z,0.00
2018-11-20T02:35:41.004Z,0.00
2018-11-20T02:37:33.796Z,0.00
2018-11-20T02:38:33.747Z,0.00
2018-11-20T02:40:27.018Z,0.00
2018-11-20T02:41:26.983Z,0.00
2018-11-20T02:43:19.796Z,0.00
2018-11-20T02:44:19.734Z,0.00
2018-11-20T02:46:12.523Z,0.00
2018-11-20T02:47:12.492Z,0.00
2018-11-20T02:49:05.299Z,0.00
2018-11-20T02:50:05.234Z,0.00
2018-11-20T02:51:58.065Z,0.00
2018-11-20T02:52:58.013Z,0.00
2018-11-20T02:54:50.809Z,0.00
2018-11-20T02:55:50.739Z,0.00
2018-11-20T02:57:43.560Z,0.00
2018-11-20T02:58:43.490Z,0.00
2018-11-20T03:00:36.284Z,0.00
2018-11-20T03:01:36.260Z,0.00
2018-11-20T03:03:29.118Z,0.00
2018-11-20T03:04:29.007Z,0.00
2018-11-20T03:06:21.793Z,0.00
2018-11-20T03:07:21.750Z,0.00
2018-11-20T03:09:14.569Z,0.00
2018-11-20T03:10:14.506Z,0.00
2018-11-20T03:12:07.302Z,0.00
2018-11-20T03:13:07.257Z,0.00
2018-11-20T03:15:00.066Z,0.00
2018-11-20T03:16:00.011Z,0.00
2018-11-20T03:17:52.809Z,0.00
2018-11-20T03:18:52.761Z,0.00
2018-11-20T03:20:45.567Z,0.00
2018-11-20T03:21:45.509Z,0.00
2018-11-20T03:23:38.304Z,0.00
2018-11-20T03:24:38.254Z,0.00
2018-11-20T03:26:31.074Z,0.00
2018-11-20T03:27:31.014Z,0.00
2018-11-20T03:29:23.819Z,0.00
2018-11-20T03:30:23.756Z,0.00
2018-11-20T03:32:16.559Z,0.00
2018-11-20T03:33:16.516Z,0.00
2018-11-20T03:35:09.340Z,0.00
2018-11-20T03:36:09.268Z,0.00
2018-11-20T03:38:02.050Z,0.00
2018-11-20T03:39:02.012Z,0.00
2018-11-20T03:40:54.822Z,0.00
2018-11-20T03:41:54.760Z,0.00
2018-11-20T03:43:47.575Z,0.00
2018-11-20T03:44:47.517Z,0.00
2018-11-20T03:46:40.331Z,0.00
2018-11-20T03:47:40.306Z,0.00
2018-11-20T03:49:33.068Z,0.00
2018-11-20T03:50:33.020Z,0.00
2018-11-20T03:52:25.840Z,0.00
2018-11-20T03:53:25.779Z,0.00
2018-11-20T03:55:19.067Z,0.00
2018-11-20T03:56:19.017Z,0.00
2018-11-20T03:58:11.842Z,0.00
2018-11-20T03:59:11.785Z,0.00
2018-11-20T04:01:04.577Z,0.00
2018-11-20T04:02:04.541Z,0.00
2018-11-20T04:03:57.348Z,0.00
2018-11-20T04:04:57.275Z,0.00
2018-11-20T04:06:50.086Z,0.00
2018-11-20T04:07:50.043Z,0.00
2018-11-20T04:09:42.827Z,0.00
2018-11-20T04:10:42.782Z,0.00
2018-11-20T04:12:35.606Z,0.00
2018-11-20T04:13:35.547Z,0.00
2018-11-20T04:15:28.333Z,0.00
2018-11-20T04:16:28.291Z,0.00
2018-11-20T04:18:21.133Z,0.00
2018-11-20T04:19:21.064Z,0.00
2018-11-20T04:21:13.857Z,0.00
2018-11-20T04:22:13.809Z,0.00
2018-11-20T04:24:06.623Z,0.00
2018-11-20T04:25:06.573Z,0.00
2018-11-20T04:26:59.359Z,0.00
2018-11-20T04:27:59.318Z,0.00
2018-11-20T04:29:52.129Z,0.00
2018-11-20T04:30:52.082Z,0.00
2018-11-20T04:32:44.865Z,0.00
2018-11-20T04:33:44.828Z,0.00
2018-11-20T04:35:37.642Z,0.00
2018-11-20T04:36:37.578Z,0.00
2018-11-20T04:38:30.397Z,0.00
2018-11-20T04:39:30.348Z,0.00
2018-11-20T04:41:23.242Z,0.00
2018-11-20T04:42:23.093Z,0.00
2018-11-20T04:44:15.918Z,0.00
2018-11-20T04:45:15.853Z,0.00
2018-11-20T04:47:08.645Z,0.00
2018-11-20T04:48:08.609Z,0.00
2018-11-20T04:50:01.505Z,0.00
2018-11-20T04:51:01.365Z,0.00
2018-11-20T04:52:54.144Z,0.00
2018-11-20T04:53:54.095Z,0.00
2018-11-20T04:55:46.914Z,0.00
2018-11-20T04:56:46.860Z,0.00
2018-11-20T04:58:39.653Z,0.00
2018-11-20T04:59:39.614Z,0.00
2018-11-20T05:01:32.421Z,0.00
2018-11-20T05:02:32.403Z,0.00
2018-11-20T05:04:25.159Z,0.00
2018-11-20T05:05:25.129Z,0.00
2018-11-20T05:07:17.923Z,0.00
2018-11-20T05:08:17.864Z,0.00
2018-11-20T05:10:10.784Z,0.00
2018-11-20T05:11:10.615Z,0.00
2018-11-20T05:13:03.447Z,0.00
2018-11-20T05:14:03.369Z,0.00
2018-11-20T05:15:56.185Z,0.00
2018-11-20T05:16:56.115Z,0.00
2018-11-20T05:18:49.404Z,0.00
2018-11-20T05:19:49.358Z,0.00
2018-11-20T05:21:42.179Z,0.00
2018-11-20T05:22:42.110Z,0.00
2018-11-20T05:24:34.901Z,0.00
2018-11-20T05:25:34.864Z,0.00
2018-11-20T05:27:27.670Z,0.00
2018-11-20T05:28:27.619Z,0.00
2018-11-20T05:30:20.411Z,0.00
2018-11-20T05:31:20.373Z,0.00
2018-11-20T05:33:13.185Z,0.00
2018-11-20T05:34:13.129Z,0.00
2018-11-20T05:36:05.912Z,0.00
2018-11-20T05:37:05.870Z,0.00
2018-11-20T05:38:58.680Z,0.00
2018-11-20T05:39:58.623Z,0.00
2018-11-20T05:41:51.410Z,0.00
2018-11-20T05:42:51.371Z,0.00
2018-11-20T05:44:44.192Z,0.00
2018-11-20T05:45:44.123Z,0.00
2018-11-20T05:47:36.935Z,0.00
2018-11-20T05:48:36.860Z,0.00
2018-11-20T05:50:30.530Z,0.00
2018-11-20T05:51:30.483Z,0.00
2018-11-20T05:53:23.296Z,0.00
2018-11-20T05:54:23.237Z,0.00
2018-11-20T05:56:16.036Z,0.00
2018-11-20T05:57:15.997Z,0.00
2018-11-20T05:59:08.803Z,0.00
2018-11-20T06:00:08.760Z,0.00
2018-11-20T06:02:01.544Z,0.00
2018-11-20T06:03:01.491Z,0.00
2018-11-20T06:04:54.313Z,0.00
2018-11-20T06:05:54.349Z,0.00
2018-11-20T06:07:47.049Z,0.00
2018-11-20T06:08:47.003Z,0.00
2018-11-20T06:10:39.817Z,0.00
2018-11-20T06:11:39.762Z,0.00
2018-11-20T06:13:32.546Z,0.00
2018-11-20T06:14:32.516Z,0.00
2018-11-20T06:16:25.328Z,0.00
2018-11-20T06:17:25.269Z,0.00
2018-11-20T06:19:18.068Z,0.00
2018-11-20T06:20:18.028Z,0.00
2018-11-20T06:22:10.831Z,0.00
2018-11-20T06:23:10.781Z,0.00
2018-11-20T06:25:03.582Z,0.00
2018-11-20T06:26:03.539Z,0.00
2018-11-20T06:27:56.333Z,0.00
2018-11-20T06:28:56.409Z,0.00
2018-11-20T06:30:49.091Z,0.00
2018-11-20T06:31:49.028Z,0.00
2018-11-20T06:33:41.822Z,0.00
2018-11-20T06:34:41.795Z,0.00
2018-11-20T06:36:34.589Z,0.00
2018-11-20T06:37:34.532Z,4.00
2018-11-20T06:39:27.318Z,0.00
2018-11-20T06:40:27.283Z,0.00
2018-11-20T06:42:20.089Z,4.00
2018-11-20T06:43:20.034Z,4.00
2018-11-20T06:45:12.829Z,8.00
2018-11-20T06:46:12.780Z,8.00
2018-11-20T06:48:05.588Z,8.00
2018-11-20T06:49:05.540Z,8.00
2018-11-20T06:50:58.348Z,12.00
2018-11-20T06:51:58.284Z,12.00
2018-11-20T06:53:51.098Z,12.00
2018-11-20T06:54:51.039Z,12.00
2018-11-20T06:56:43.850Z,16.00
2018-11-20T06:57:43.794Z,16.00
2018-11-20T06:59:36.595Z,20.00
2018-11-20T07:00:36.549Z,24.00
2018-11-20T07:02:29.350Z,24.00
2018-11-20T07:03:29.301Z,28.00
2018-11-20T07:05:22.093Z,28.00
2018-11-20T07:06:22.044Z,36.00
2018-11-20T07:08:15.567Z,40.00
2018-11-20T07:09:14.789Z,40.00
2018-11-20T07:11:07.610Z,44.00
2018-11-20T07:12:07.559Z,44.00
2018-11-20T07:14:00.390Z,48.00
2018-11-20T07:15:00.327Z,48.00
2018-11-20T07:16:53.117Z,48.00
2018-11-20T07:17:53.070Z,48.00
2018-11-20T07:19:45.887Z,56.00
2018-11-20T07:20:45.828Z,64.00
2018-11-20T07:22:38.706Z,68.00
2018-11-20T07:23:38.596Z,72.00
2018-11-20T07:25:31.480Z,84.00
2018-11-20T07:26:31.439Z,96.00
2018-11-20T07:28:24.253Z,88.00
2018-11-20T07:29:24.200Z,96.00
2018-11-20T07:31:17.142Z,104.00
2018-11-20T07:32:16.943Z,100.00
2018-11-20T07:34:09.752Z,100.00
2018-11-20T07:35:09.695Z,108.00
2018-11-20T07:37:02.606Z,100.00
2018-11-20T07:38:02.446Z,92.00
2018-11-20T07:39:55.260Z,96.00
2018-11-20T07:40:55.202Z,108.00
2018-11-20T07:42:47.989Z,104.00
2018-11-20T07:43:48.045Z,108.00
2018-11-20T07:45:40.757Z,120.00
2018-11-20T07:46:40.702Z,116.00
2018-11-20T07:48:33.505Z,128.00
2018-11-20T07:49:33.458Z,124.00
2018-11-20T07:51:26.293Z,140.00
2018-11-20T07:52:26.215Z,140.00
2018-11-20T07:54:19.035Z,152.00
2018-11-20T07:55:19.043Z,152.00
2018-11-20T07:57:11.795Z,152.00
2018-11-20T07:58:11.726Z,160.00
2018-11-20T08:00:04.545Z,176.00
2018-11-20T08:01:04.491Z,180.00
2018-11-20T08:02:57.306Z,196.00
2018-11-20T08:03:57.232Z,200.00
2018-11-20T08:05:50.048Z,200.00
2018-11-20T08:06:49.985Z,216.00
2018-11-20T08:08:42.831Z,228.00
2018-11-20T08:09:42.785Z,244.00
2018-11-20T08:11:35.560Z,236.00
2018-11-20T08:12:35.493Z,244.00
2018-11-20T08:14:28.291Z,264.00
2018-11-20T08:15:28.315Z,252.00
2018-11-20T08:17:21.059Z,260.00
2018-11-20T08:18:21.008Z,260.00
2018-11-20T08:20:13.797Z,276.00
2018-11-20T08:21:13.745Z,272.00
2018-11-20T08:23:06.571Z,300.00
2018-11-20T08:24:06.514Z,300.00
2018-11-20T08:25:59.396Z,308.00
2018-11-20T08:26:59.262Z,320.00
2018-11-20T08:28:52.107Z,324.00
2018-11-20T08:29:52.018Z,336.00
2018-11-20T08:31:44.809Z,356.00
2018-11-20T08:32:44.767Z,372.00
2018-11-20T08:34:37.598Z,372.00
2018-11-20T08:35:37.529Z,384.00
2018-11-20T08:37:30.347Z,416.00
2018-11-20T08:38:30.275Z,436.00
2018-11-20T08:40:23.079Z,448.00
2018-11-20T08:41:23.029Z,440.00
2018-11-20T08:43:15.830Z,476.00
2018-11-20T08:44:15.802Z,488.00
2018-11-20T08:46:08.584Z,512.00
2018-11-20T08:47:08.559Z,508.00
2018-11-20T08:49:01.364Z,528.00
2018-11-20T08:50:01.304Z,524.00
2018-11-20T08:51:54.097Z,536.00
2018-11-20T08:52:54.110Z,548.00
2018-11-20T08:54:46.869Z,564.00
2018-11-20T08:55:46.808Z,508.00
2018-11-20T08:57:39.639Z,508.00
2018-11-20T08:58:39.609Z,516.00
2018-11-20T09:00:32.409Z,512.00
2018-11-20T09:01:32.361Z,516.00
2018-11-20T09:03:25.256Z,524.00
2018-11-20T09:04:25.107Z,512.00
2018-11-20T09:06:17.941Z,516.00
2018-11-20T09:07:17.864Z,532.00
2018-11-20T09:09:10.658Z,524.00
2018-11-20T09:10:10.615Z,552.00
2018-11-20T09:12:03.433Z,580.00
2018-11-20T09:13:03.376Z,584.00
2018-11-20T09:14:56.193Z,600.00
2018-11-20T09:15:56.135Z,608.00
2018-11-20T09:17:48.945Z,620.00
2018-11-20T09:18:48.879Z,644.00
2018-11-20T09:20:41.720Z,664.00
2018-11-20T09:21:41.648Z,684.00
2018-11-20T09:23:34.508Z,708.00
2018-11-20T09:24:34.399Z,692.00
2018-11-20T09:26:27.211Z,720.00
2018-11-20T09:27:27.152Z,728.00
2018-11-20T09:29:20.504Z,748.00
2018-11-20T09:30:20.452Z,768.00
2018-11-20T09:32:13.371Z,828.00
2018-11-20T09:33:13.195Z,808.00
2018-11-20T09:35:06.111Z,856.00
2018-11-20T09:36:05.979Z,884.00
2018-11-20T09:37:58.770Z,872.00
2018-11-20T09:38:58.724Z,868.00
2018-11-20T09:40:51.535Z,908.00
2018-11-20T09:41:51.465Z,908.00
2018-11-20T09:43:44.287Z,948.00
2018-11-20T09:44:44.227Z,900.00
2018-11-20T09:46:37.137Z,976.00
2018-11-20T09:47:36.987Z,988.00
2018-11-20T09:49:29.788Z,944.00
2018-11-20T09:50:29.748Z,960.00
2018-11-20T09:52:22.565Z,948.00
2018-11-20T09:53:22.501Z,968.00
2018-11-20T09:55:15.310Z,1004.00
2018-11-20T09:56:15.256Z,1004.00
2018-11-20T09:58:08.076Z,1008.00
2018-11-20T09:59:08.073Z,952.00
2018-11-20T10:01:00.817Z,936.00
2018-11-20T10:02:00.776Z,956.00
2018-11-20T10:03:53.604Z,1220.00
2018-11-20T10:04:53.520Z,1056.00
2018-11-20T10:06:46.372Z,1012.00
2018-11-20T10:07:46.278Z,1040.00
2018-11-20T10:09:39.101Z,1196.00
2018-11-20T10:10:39.043Z,1080.00
2018-11-20T10:12:31.842Z,960.00
2018-11-20T10:13:31.800Z,1004.00
2018-11-20T10:15:24.629Z,944.00
2018-11-20T10:16:24.554Z,972.00
2018-11-20T10:18:17.386Z,1004.00
2018-11-20T10:19:17.299Z,1024.00
2018-11-20T10:21:10.112Z,1036.00
2018-11-20T10:22:10.115Z,1080.00
2018-11-20T10:24:02.874Z,1020.00
2018-11-20T10:25:02.910Z,1000.00
2018-11-20T10:26:55.629Z,920.00
2018-11-20T10:27:55.601Z,944.00
2018-11-20T10:29:48.403Z,1064.00
2018-11-20T10:30:48.347Z,1140.00
2018-11-20T10:32:41.138Z,1284.00
2018-11-20T10:33:41.102Z,1224.00
2018-11-20T10:35:33.930Z,1156.00
2018-11-20T10:36:33.867Z,1144.00
2018-11-20T10:38:26.662Z,1156.00
2018-11-20T10:39:26.612Z,1136.00
2018-11-20T10:41:19.442Z,1068.00
2018-11-20T10:42:19.392Z,1080.00
2018-11-20T10:44:12.195Z,1072.00
2018-11-20T10:45:12.181Z,1036.00
2018-11-20T10:47:04.923Z,1112.00
2018-11-20T10:48:04.899Z,1156.00
2018-11-20T10:49:58.208Z,1256.00
2018-11-20T10:50:58.173Z,1272.00
2018-11-20T10:52:50.934Z,1236.00
2018-11-20T10:53:50.898Z,1256.00
2018-11-20T10:55:43.701Z,1260.00
2018-11-20T10:56:43.671Z,1248.00
2018-11-20T10:58:36.448Z,1196.00
2018-11-20T10:59:36.485Z,1184.00
2018-11-20T11:01:29.206Z,1140.00
2018-11-20T11:02:29.154Z,1116.00
2018-11-20T11:04:22.018Z,1132.00
2018-11-20T11:05:21.909Z,1148.00
2018-11-20T11:07:14.879Z,1212.00
2018-11-20T11:08:14.682Z,1248.00
2018-11-20T11:10:07.474Z,1240.00
2018-11-20T11:11:07.414Z,1256.00
2018-11-20T11:13:00.213Z,1288.00
2018-11-20T11:14:00.170Z,1292.00
2018-11-20T11:15:52.995Z,1284.00
2018-11-20T11:16:52.926Z,1320.00
2018-11-20T11:18:45.730Z,1272.00
2018-11-20T11:19:45.681Z,1260.00
2018-11-20T11:21:38.505Z,1344.00
2018-11-20T11:22:38.460Z,1332.00
2018-11-20T11:24:31.246Z,1412.00
2018-11-20T11:25:31.207Z,1424.00
2018-11-20T11:27:24.156Z,1456.00
2018-11-20T11:28:23.973Z,1484.00
2018-11-20T11:30:16.768Z,1568.00
2018-11-20T11:31:16.730Z,1500.00
2018-11-20T11:33:09.548Z,1556.00
2018-11-20T11:34:09.555Z,1644.00
2018-11-20T11:36:02.292Z,1620.00
2018-11-20T11:37:02.249Z,1720.00
2018-11-20T11:38:55.064Z,2272.00
2018-11-20T11:39:55.012Z,2496.00
2018-11-20T11:41:47.801Z,2336.00
2018-11-20T11:42:47.763Z,2900.00
2018-11-20T11:44:40.572Z,2116.00
2018-11-20T11:45:40.517Z,2368.00
2018-11-20T11:47:33.309Z,2176.00
2018-11-20T11:48:33.269Z,2136.00
2018-11-20T11:50:26.112Z,2392.00
2018-11-20T11:51:26.029Z,2464.00
2018-11-20T11:53:18.829Z,1976.00
2018-11-20T11:54:18.777Z,1780.00
2018-11-20T11:56:11.603Z,1672.00
2018-11-20T11:57:11.544Z,1532.00
2018-11-20T11:59:04.365Z,1540.00
2018-11-20T12:00:04.310Z,1460.00
2018-11-20T12:04:30.263Z,1296.00
2018-11-20T12:06:02.079Z,1276.00
2018-11-20T12:07:02.009Z,1264.00
2018-11-20T12:08:54.829Z,1288.00
2018-11-20T12:09:54.765Z,1284.00
2018-11-20T12:11:47.593Z,1304.00
2018-11-20T12:12:47.547Z,1356.00
2018-11-20T12:14:40.369Z,1340.00
2018-11-20T12:15:40.309Z,1368.00
2018-11-20T12:17:33.122Z,1588.00
2018-11-20T12:18:33.050Z,1636.00
2018-11-20T12:20:25.858Z,1520.00
2018-11-20T12:21:25.816Z,1484.00
2018-11-20T12:23:18.636Z,1508.00
2018-11-20T12:24:18.585Z,1484.00
2018-11-20T12:26:11.393Z,1432.00
2018-11-20T12:27:11.342Z,1384.00
2018-11-20T12:29:04.136Z,1312.00
2018-11-20T12:30:04.096Z,1360.00
2018-11-20T12:31:56.914Z,1512.00
2018-11-20T12:32:56.854Z,1556.00
2018-11-20T12:34:49.775Z,1492.00
2018-11-20T12:35:49.610Z,1716.00
2018-11-20T12:37:43.712Z,1664.00
2018-11-20T12:38:43.450Z,1632.00
2018-11-20T12:40:35.181Z,1512.00
2018-11-20T12:41:35.135Z,1444.00
2018-11-20T12:43:27.949Z,1508.00
2018-11-20T12:44:27.893Z,1440.00
2018-11-20T12:46:20.679Z,1320.00
2018-11-20T12:47:20.647Z,1212.00
2018-11-20T12:49:13.459Z,1160.00
2018-11-20T12:50:13.397Z,1140.00
2018-11-20T12:52:06.199Z,1152.00
2018-11-20T12:53:06.156Z,1152.00
2018-11-20T12:54:58.986Z,1092.00
2018-11-20T12:55:58.921Z,1032.00
2018-11-20T12:57:51.710Z,984.00
2018-11-20T12:58:51.688Z,1048.00
2018-11-20T13:00:44.491Z,1016.00
2018-11-20T13:01:44.451Z,1024.00
2018-11-20T13:03:37.273Z,944.00
2018-11-20T13:04:37.197Z,884.00
2018-11-20T13:06:30.007Z,876.00
2018-11-20T13:07:29.976Z,920.00
2018-11-20T13:09:22.782Z,908.00
2018-11-20T13:10:22.718Z,896.00
2018-11-20T13:12:15.521Z,860.00
2018-11-20T13:13:15.476Z,912.00
2018-11-20T13:15:08.303Z,932.00
2018-11-20T13:16:08.237Z,880.00
2018-11-20T13:18:01.045Z,800.00
2018-11-20T13:19:00.985Z,756.00
2018-11-20T13:20:54.343Z,744.00
2018-11-20T13:21:53.749Z,800.00
2018-11-20T13:23:46.573Z,780.00
2018-11-20T13:24:46.508Z,732.00
2018-11-20T13:26:39.319Z,660.00
2018-11-20T13:27:39.266Z,680.00
2018-11-20T13:29:32.056Z,620.00
2018-11-20T13:30:32.009Z,572.00
2018-11-20T13:32:24.827Z,560.00
2018-11-20T13:33:25.642Z,560.00
2018-11-20T13:35:18.063Z,536.00
2018-11-20T13:36:18.023Z,532.00
2018-11-20T13:38:11.681Z,568.00
2018-11-20T13:39:11.821Z,612.00
2018-11-20T13:41:03.603Z,592.00
2018-11-20T13:42:03.529Z,556.00
2018-11-20T13:43:56.343Z,544.00
2018-11-20T13:44:57.279Z,560.00
2018-11-20T13:46:49.117Z,540.00
2018-11-20T13:47:49.059Z,544.00
2018-11-20T13:49:41.848Z,508.00
2018-11-20T13:50:41.815Z,504.00
2018-11-20T13:52:34.626Z,444.00
2018-11-20T13:53:34.571Z,448.00
2018-11-20T13:55:27.456Z,464.00
2018-11-20T13:56:27.331Z,448.00
2018-11-20T13:58:20.149Z,440.00
2018-11-20T13:59:20.099Z,424.00
2018-11-20T14:01:12.874Z,424.00
2018-11-20T14:02:12.834Z,436.00
2018-11-20T14:04:05.748Z,424.00
2018-11-20T14:05:05.595Z,384.00
2018-11-20T14:06:58.409Z,368.00
2018-11-20T14:07:58.356Z,364.00
2018-11-20T14:09:51.188Z,336.00
2018-11-20T14:10:51.113Z,312.00
2018-11-20T14:12:43.935Z,320.00
2018-11-20T14:13:43.871Z,328.00
2018-11-20T14:15:36.663Z,288.00
2018-11-20T14:16:36.630Z,284.00
2018-11-20T14:18:29.439Z,260.00
2018-11-20T14:19:29.373Z,244.00
2018-11-20T14:21:22.174Z,228.00
2018-11-20T14:22:22.133Z,220.00
2018-11-20T14:24:14.953Z,216.00
2018-11-20T14:25:14.953Z,220.00
2018-11-20T14:27:07.758Z,200.00
2018-11-20T14:28:07.704Z,204.00
2018-11-20T14:30:00.525Z,204.00
2018-11-20T14:31:00.471Z,200.00
2018-11-20T14:32:53.264Z,168.00
2018-11-20T14:33:53.230Z,160.00
2018-11-20T14:35:46.036Z,156.00
2018-11-20T14:36:45.976Z,152.00
2018-11-20T14:38:38.775Z,152.00
2018-11-20T14:39:38.729Z,144.00
2018-11-20T14:41:31.556Z,144.00
2018-11-20T14:42:31.474Z,140.00
2018-11-20T14:44:24.294Z,132.00
2018-11-20T14:45:24.234Z,136.00
2018-11-20T14:47:17.060Z,124.00
2018-11-20T14:48:17.031Z,116.00
2018-11-20T14:50:09.825Z,112.00
2018-11-20T14:51:09.752Z,104.00
2018-11-20T14:53:02.545Z,104.00
2018-11-20T14:54:02.502Z,108.00
2018-11-20T14:55:55.322Z,104.00
2018-11-20T14:56:55.265Z,96.00
2018-11-20T14:58:48.080Z,92.00
2018-11-20T14:59:48.015Z,88.00
2018-11-20T15:01:40.841Z,96.00
2018-11-20T15:02:40.766Z,96.00
2018-11-20T15:04:33.569Z,84.00
2018-11-20T15:05:33.532Z,80.00
2018-11-20T15:07:26.852Z,72.00
2018-11-20T15:08:26.786Z,72.00
2018-11-20T15:10:19.581Z,72.00
2018-11-20T15:11:19.542Z,64.00
2018-11-20T15:13:12.362Z,60.00
2018-11-20T15:14:12.321Z,60.00
2018-11-20T15:16:05.109Z,56.00
2018-11-20T15:17:05.063Z,56.00
2018-11-20T15:18:57.873Z,48.00
2018-11-20T15:19:57.813Z,52.00
2018-11-20T15:21:50.612Z,48.00
2018-11-20T15:22:50.568Z,44.00
2018-11-20T15:24:43.368Z,40.00
2018-11-20T15:25:43.324Z,40.00
2018-11-20T15:27:36.148Z,36.00
2018-11-20T15:28:36.071Z,32.00
2018-11-20T15:30:28.873Z,32.00
2018-11-20T15:31:28.838Z,32.00
2018-11-20T15:33:21.651Z,24.00
2018-11-20T15:34:21.594Z,24.00
2018-11-20T15:36:14.392Z,24.00
2018-11-20T15:37:14.347Z,16.00
2018-11-20T15:39:07.175Z,16.00
2018-11-20T15:40:07.114Z,16.00
2018-11-20T15:42:06.590Z,16.00
2018-11-20T15:42:59.869Z,12.00
2018-11-20T15:44:52.684Z,8.00
2018-11-20T15:45:52.636Z,12.00
2018-11-20T15:47:45.443Z,8.00
2018-11-20T15:48:45.374Z,4.00
2018-11-20T15:50:38.197Z,4.00
2018-11-20T15:51:38.142Z,4.00
2018-11-20T15:53:30.932Z,4.00
2018-11-20T15:54:30.894Z,4.00
2018-11-20T15:56:23.708Z,4.00
2018-11-20T15:57:23.647Z,4.00
2018-11-20T15:59:16.454Z,0.00
2018-11-20T16:00:16.398Z,0.00
2018-11-20T16:02:09.210Z,4.00
2018-11-20T16:03:09.154Z,4.00
2018-11-20T16:05:01.967Z,0.00
2018-11-20T16:06:01.908Z,0.00
2018-11-20T16:07:54.700Z,0.00
2018-11-20T16:08:54.665Z,0.00
2018-11-20T16:10:47.477Z,0.00
2018-11-20T16:11:47.415Z,0.00
2018-11-20T16:13:40.220Z,0.00
2018-11-20T16:14:40.173Z,0.00
2018-11-20T16:16:32.995Z,0.00
2018-11-20T16:17:32.938Z,0.00
2018-11-20T16:19:25.734Z,0.00
2018-11-20T16:20:25.697Z,0.00
2018-11-20T16:22:18.601Z,0.00
2018-11-20T16:23:18.460Z,0.00
2018-11-20T16:25:11.256Z,0.00
2018-11-20T16:26:11.217Z,0.00
2018-11-20T16:28:04.048Z,0.00
2018-11-20T16:29:03.984Z,0.00
2018-11-20T16:30:56.792Z,0.00
2018-11-20T16:31:56.731Z,0.00
2018-11-20T16:33:49.565Z,0.00
2018-11-20T16:34:49.518Z,0.00
2018-11-20T16:36:42.324Z,0.00
2018-11-20T16:37:42.270Z,0.00
2018-11-20T16:39:35.065Z,0.00
2018-11-20T16:40:35.026Z,0.00
2018-11-20T16:42:27.832Z,0.00
2018-11-20T16:43:27.779Z,0.00
2018-11-20T16:45:20.564Z,0.00
2018-11-20T16:46:20.528Z,0.00
2018-11-20T16:48:13.356Z,0.00
2018-11-20T16:49:13.300Z,0.00
2018-11-20T16:51:06.101Z,0.00
2018-11-20T16:52:06.043Z,0.00
2018-11-20T16:53:58.897Z,0.00
2018-11-20T16:54:58.811Z,0.00
2018-11-20T16:56:51.625Z,0.00
2018-11-20T16:57:51.577Z,0.00
2018-11-20T16:59:44.416Z,0.00
2018-11-20T17:00:44.331Z,0.00
2018-11-20T17:02:37.151Z,0.00
2018-11-20T17:03:37.095Z,0.00
2018-11-20T17:05:29.884Z,0.00
2018-11-20T17:06:29.831Z,0.00
2018-11-20T17:08:22.649Z,0.00
2018-11-20T17:09:22.591Z,0.00
2018-11-20T17:11:15.427Z,0.00
2018-11-20T17:12:15.352Z,0.00
2018-11-20T17:14:08.154Z,0.00
2018-11-20T17:15:08.100Z,0.00
2018-11-20T17:17:00.890Z,0.00
2018-11-20T17:18:00.857Z,0.00
2018-11-20T17:19:53.682Z,0.00
2018-11-20T17:20:53.607Z,0.00
2018-11-20T17:22:46.410Z,0.00
2018-11-20T17:23:46.358Z,0.00
2018-11-20T17:25:39.186Z,0.00
2018-11-20T17:26:39.134Z,0.00
2018-11-20T17:28:31.924Z,0.00
2018-11-20T17:29:31.879Z,0.00
2018-11-20T17:31:24.698Z,0.00
2018-11-20T17:32:24.628Z,0.00
2018-11-20T17:34:17.429Z,0.00
2018-11-20T17:35:17.384Z,0.00
2018-11-20T17:37:10.219Z,0.00
2018-11-20T17:38:10.148Z,0.00
2018-11-20T17:40:02.978Z,0.00
2018-11-20T17:41:02.897Z,0.00
2018-11-20T17:42:55.744Z,0.00
2018-11-20T17:43:55.755Z,0.00
2018-11-20T17:45:48.528Z,0.00
2018-11-20T17:46:48.455Z,0.00
2018-11-20T17:48:41.302Z,0.00
2018-11-20T17:49:41.219Z,0.00
2018-11-20T17:51:34.585Z,0.00
2018-11-20T17:52:34.481Z,0.00
2018-11-20T17:54:27.273Z,0.00
2018-11-20T17:55:27.222Z,0.00
2018-11-20T17:57:21.010Z,0.00
2018-11-20T17:58:20.942Z,0.00
2018-11-20T18:00:13.772Z,0.00
2018-11-20T18:01:13.728Z,0.00
2018-11-20T18:03:06.514Z,0.00
2018-11-20T18:04:06.484Z,0.00
2018-11-20T18:05:59.301Z,0.00
2018-11-20T18:06:59.230Z,0.00
2018-11-20T18:08:52.049Z,0.00
2018-11-20T18:09:51.984Z,0.00
2018-11-20T18:11:44.790Z,0.00
2018-11-20T18:12:44.752Z,0.00
2018-11-20T18:14:37.566Z,0.00
2018-11-20T18:15:37.490Z,0.00
2018-11-20T18:17:30.302Z,0.00
2018-11-20T18:18:30.265Z,0.00
2018-11-20T18:20:23.090Z,0.00
2018-11-20T18:21:23.016Z,0.00
2018-11-20T18:23:15.854Z,0.00
2018-11-20T18:24:15.784Z,0.00
2018-11-20T18:26:08.581Z,0.00
2018-11-20T18:27:08.539Z,0.00
2018-11-20T18:29:01.363Z,0.00
2018-11-20T18:30:01.307Z,0.00
2018-11-20T18:31:54.089Z,0.00
2018-11-20T18:32:54.056Z,0.00